Terminal Aerodrome Forecast
Issued by NWS

Home | Current Version | Previous Version | Graphics & Text | Print | Product List | Glossary On
Versions: 1 2 3 4 5 6 7 8 9 10 11 12 13 14 15 16 17 18 19 20
620
FTUS43 KICT 241617 AAA
TAFRSL
TAF AMD
KRSL 241617Z 2416/2512 12015G21KT P6SM BKN050
     FM241900 14014G23KT P6SM SCT040
     FM250000 15014KT P6SM VCTS SCT040CB BKN070
     FM250600 15015KT P6SM VCSH BKN035=

USA.gov is the U.S. government's official web portal to all federal, state and local government web resources and services.